createdAt,value
2023-06-07T00:00:10.290Z,14.75
2023-06-07T00:02:44.245Z,14.66
2023-06-07T00:05:14.327Z,14.77
2023-06-07T00:07:42.904Z,14.78
2023-06-07T00:10:11.522Z,14.71
2023-06-07T00:12:41.093Z,14.63
2023-06-07T00:15:09.733Z,14.62
2023-06-07T00:17:39.074Z,14.58
2023-06-07T00:20:10.262Z,14.49
2023-06-07T00:22:40.098Z,14.53
2023-06-07T00:25:09.818Z,14.32
2023-06-07T00:27:37.965Z,14.43
2023-06-07T00:30:08.854Z,14.37
2023-06-07T00:32:36.875Z,14.30
2023-06-07T00:35:08.287Z,14.34
2023-06-07T00:37:36.311Z,14.28
2023-06-07T00:40:06.240Z,14.23
2023-06-07T00:42:34.430Z,14.34
2023-06-07T00:45:02.384Z,14.23
2023-06-07T00:47:31.834Z,14.21
2023-06-07T00:49:59.941Z,14.27
2023-06-07T00:52:27.960Z,14.29
2023-06-07T00:54:55.987Z,14.24
2023-06-07T00:57:23.921Z,14.37
2023-06-07T00:59:51.876Z,14.40
2023-06-07T01:02:19.875Z,14.37
2023-06-07T01:04:50.978Z,14.39
2023-06-07T01:07:26.128Z,14.46
2023-06-07T01:09:54.651Z,14.53
2023-06-07T01:12:22.658Z,14.51
2023-06-07T01:14:50.711Z,14.58
2023-06-07T01:17:18.832Z,14.58
2023-06-07T01:19:46.862Z,14.58
2023-06-07T01:22:16.219Z,14.64
2023-06-07T01:24:49.198Z,14.77
2023-06-07T01:27:17.755Z,14.60
2023-06-07T01:29:46.061Z,14.55
2023-06-07T01:32:14.446Z,14.46
2023-06-07T01:34:42.526Z,14.54
2023-06-07T01:37:10.541Z,14.47
2023-06-07T01:39:38.794Z,14.47
2023-06-07T01:42:08.576Z,14.41
2023-06-07T01:44:36.644Z,14.46
2023-06-07T01:47:04.757Z,14.48
2023-06-07T01:49:32.705Z,14.38
2023-06-07T01:52:00.657Z,14.34
2023-06-07T01:54:28.598Z,14.34
2023-06-07T01:57:01.591Z,14.33
2023-06-07T01:59:36.802Z,14.23
2023-06-07T02:02:09.149Z,14.13
2023-06-07T02:04:37.435Z,14.15
2023-06-07T02:07:07.360Z,14.10
2023-06-07T02:09:36.351Z,13.94
2023-06-07T02:12:04.695Z,13.93
2023-06-07T02:14:34.078Z,13.89
2023-06-07T02:17:02.270Z,13.88
2023-06-07T02:19:30.318Z,13.86
2023-06-07T02:21:58.250Z,13.96
2023-06-07T02:24:26.579Z,13.95
2023-06-07T02:26:55.180Z,13.87
2023-06-07T02:29:23.136Z,13.96
2023-06-07T02:31:53.995Z,14.02
2023-06-07T02:34:22.474Z,14.05
2023-06-07T02:36:50.508Z,14.04
2023-06-07T02:39:18.520Z,14.13
2023-06-07T02:41:46.496Z,14.20
2023-06-07T02:44:14.484Z,14.24
2023-06-07T02:46:42.480Z,14.26
2023-06-07T02:49:12.041Z,14.30
2023-06-07T02:51:40.439Z,14.29
2023-06-07T02:54:10.285Z,14.39
2023-06-07T02:56:38.349Z,14.46
2023-06-07T02:59:06.291Z,14.59
2023-06-07T03:01:35.484Z,14.63
2023-06-07T03:04:03.586Z,14.75
2023-06-07T03:06:34.350Z,14.86
2023-06-07T03:09:02.632Z,14.94
2023-06-07T03:11:30.562Z,15.09
2023-06-07T03:13:58.538Z,15.22
2023-06-07T03:16:27.944Z,15.27
2023-06-07T03:18:56.204Z,15.56
2023-06-07T03:21:24.202Z,15.64
2023-06-07T03:23:54.411Z,15.55
2023-06-07T03:26:22.519Z,15.56
2023-06-07T03:28:50.598Z,15.65
2023-06-07T03:31:19.471Z,15.80
2023-06-07T03:33:47.550Z,15.77
2023-06-07T03:36:15.532Z,15.85
2023-06-07T03:38:43.524Z,16.07
2023-06-07T03:41:12.861Z,16.26
2023-06-07T03:43:40.832Z,16.31
2023-06-07T03:46:08.773Z,16.62
2023-06-07T03:48:37.875Z,16.94
2023-06-07T03:51:07.651Z,17.30
2023-06-07T03:53:35.670Z,17.48
2023-06-07T03:56:03.619Z,17.65
2023-06-07T03:58:33.057Z,17.79
2023-06-07T04:01:01.069Z,17.98
2023-06-07T04:03:29.521Z,18.40
2023-06-07T04:05:57.648Z,19.40
2023-06-07T04:08:25.665Z,20.80
2023-06-07T04:10:54.150Z,21.30
2023-06-07T04:13:22.141Z,21.93
2023-06-07T04:15:51.486Z,22.92
2023-06-07T04:18:19.440Z,25.15
2023-06-07T04:20:47.369Z,27.31
2023-06-07T04:23:15.316Z,29.03
2023-06-07T04:25:43.641Z,30.05
2023-06-07T04:28:11.651Z,31.27
2023-06-07T04:30:43.445Z,31.61
2023-06-07T04:33:14.711Z,31.69
2023-06-07T04:35:44.138Z,30.96
2023-06-07T04:38:12.969Z,30.92
2023-06-07T04:40:42.391Z,31.20
2023-06-07T04:43:12.215Z,31.08
2023-06-07T04:45:41.345Z,30.64
2023-06-07T04:48:09.560Z,30.85
2023-06-07T04:50:40.192Z,31.23
2023-06-07T04:53:09.421Z,31.37
2023-06-07T04:55:39.052Z,32.34
2023-06-07T04:58:07.051Z,32.70
2023-06-07T05:00:35.088Z,32.19
2023-06-07T05:03:07.741Z,31.80
2023-06-07T05:05:35.801Z,30.33
2023-06-07T05:08:05.465Z,30.34
2023-06-07T05:10:33.491Z,29.93
2023-06-07T05:13:01.549Z,30.66
2023-06-07T05:15:29.580Z,31.35
2023-06-07T05:17:57.667Z,32.18
2023-06-07T05:20:26.298Z,31.26
2023-06-07T05:22:54.585Z,31.17
2023-06-07T05:25:23.988Z,31.27
2023-06-07T05:28:08.138Z,31.62
2023-06-07T05:30:40.209Z,32.45
2023-06-07T05:33:08.769Z,31.97
2023-06-07T05:35:36.784Z,33.05
2023-06-07T05:38:04.937Z,32.83
2023-06-07T05:40:34.310Z,33.03
2023-06-07T05:43:02.388Z,33.67
2023-06-07T05:45:31.152Z,33.06
2023-06-07T05:47:59.174Z,32.60
2023-06-07T05:50:27.149Z,31.76
2023-06-07T05:52:57.561Z,32.45
2023-06-07T05:55:26.496Z,32.44
2023-06-07T05:57:56.075Z,32.77
2023-06-07T06:00:25.007Z,32.91
2023-06-07T06:02:54.077Z,32.38
2023-06-07T06:05:24.757Z,31.92
2023-06-07T06:07:52.796Z,30.91
2023-06-07T06:10:20.942Z,30.25
2023-06-07T06:12:48.943Z,31.60
2023-06-07T06:15:18.302Z,31.69
2023-06-07T06:17:46.303Z,31.64
2023-06-07T06:20:17.910Z,31.96
2023-06-07T06:22:46.045Z,32.81
2023-06-07T06:25:15.188Z,32.09
2023-06-07T06:27:43.329Z,31.38
2023-06-07T06:30:11.966Z,31.31
2023-06-07T06:32:41.427Z,30.60
2023-06-07T06:35:10.129Z,29.73
2023-06-07T06:37:38.162Z,29.77
2023-06-07T06:40:08.011Z,29.83
2023-06-07T06:42:36.843Z,29.83
2023-06-07T06:45:05.462Z,30.00
2023-06-07T06:47:33.419Z,30.10
2023-06-07T06:50:03.338Z,30.26
2023-06-07T06:52:33.498Z,30.44
2023-06-07T06:55:01.493Z,30.61
2023-06-07T06:57:29.475Z,31.58
2023-06-07T06:59:57.488Z,32.49
2023-06-07T07:02:25.637Z,33.68
2023-06-07T07:04:54.197Z,34.83
2023-06-07T07:07:23.579Z,34.52
2023-06-07T07:09:51.608Z,34.70
2023-06-07T07:12:22.405Z,35.94
2023-06-07T07:14:50.516Z,35.54
2023-06-07T07:17:19.089Z,36.48
2023-06-07T07:19:49.529Z,37.38
2023-06-07T07:22:17.542Z,35.78
2023-06-07T07:24:47.304Z,35.10
2023-06-07T07:27:15.279Z,35.08
2023-06-07T07:29:43.326Z,35.15
2023-06-07T07:32:11.273Z,35.13
2023-06-07T07:34:40.664Z,36.02
2023-06-07T07:37:09.863Z,36.35
2023-06-07T07:39:38.616Z,37.18
2023-06-07T07:42:08.997Z,35.61
2023-06-07T07:44:38.322Z,35.02
2023-06-07T07:47:07.424Z,34.37
2023-06-07T07:49:36.752Z,33.00
2023-06-07T07:52:05.251Z,33.49
2023-06-07T07:54:33.223Z,34.44
2023-06-07T07:57:01.701Z,33.76
2023-06-07T07:59:31.150Z,33.43
2023-06-07T08:01:59.188Z,33.39
2023-06-07T08:04:27.297Z,33.37
2023-06-07T08:06:55.307Z,33.33
2023-06-07T08:09:23.492Z,33.66
2023-06-07T08:11:51.448Z,33.49
2023-06-07T08:14:20.110Z,34.16
2023-06-07T08:16:49.544Z,33.89
2023-06-07T08:19:17.784Z,34.51
2023-06-07T08:21:48.588Z,34.65
2023-06-07T08:24:16.659Z,34.75
2023-06-07T08:26:46.145Z,34.14
2023-06-07T08:29:14.126Z,33.57
2023-06-07T08:31:44.907Z,33.37
2023-06-07T08:34:14.416Z,32.60
2023-06-07T08:36:43.661Z,32.59
2023-06-07T08:39:11.609Z,32.04
2023-06-07T08:41:40.330Z,31.43
2023-06-07T08:44:08.330Z,31.32
2023-06-07T08:46:36.432Z,31.35
2023-06-07T08:49:04.553Z,31.53
2023-06-07T08:51:34.422Z,31.53
2023-06-07T08:54:03.601Z,31.28
2023-06-07T08:56:32.945Z,31.48
2023-06-07T08:59:01.197Z,31.75
2023-06-07T09:01:32.276Z,31.66
2023-06-07T09:04:00.630Z,30.81
2023-06-07T09:06:28.838Z,30.68
2023-06-07T09:08:59.856Z,30.65
2023-06-07T09:11:27.814Z,30.52
2023-06-07T09:13:57.408Z,30.60
2023-06-07T09:16:25.573Z,30.65
2023-06-07T09:18:56.288Z,30.61
2023-06-07T09:21:24.949Z,30.67
2023-06-07T09:23:53.188Z,30.80
2023-06-07T09:26:24.299Z,31.11
2023-06-07T09:28:52.421Z,31.09
2023-06-07T09:31:31.206Z,31.53
2023-06-07T09:33:59.314Z,31.53
2023-06-07T09:36:27.995Z,31.62
2023-06-07T09:38:57.187Z,31.68
2023-06-07T09:41:33.730Z,31.79
2023-06-07T09:44:03.485Z,31.73
2023-06-07T09:46:36.470Z,31.78
2023-06-07T09:49:04.604Z,31.93
2023-06-07T09:51:40.518Z,32.26
2023-06-07T09:54:10.742Z,32.18
2023-06-07T09:56:43.434Z,32.36
2023-06-07T09:59:12.253Z,33.11
2023-06-07T10:01:43.411Z,33.12
2023-06-07T10:04:12.109Z,33.11
2023-06-07T10:06:41.822Z,33.55
2023-06-07T10:09:10.128Z,33.45
2023-06-07T10:11:39.202Z,34.18
2023-06-07T10:14:10.572Z,34.38
2023-06-07T10:16:39.782Z,33.97
2023-06-07T10:19:12.397Z,33.69
2023-06-07T10:21:40.682Z,33.10
2023-06-07T10:24:11.667Z,32.69
2023-06-07T10:26:44.256Z,32.68
2023-06-07T10:29:15.990Z,32.57
2023-06-07T10:31:49.861Z,32.37
2023-06-07T10:34:17.880Z,32.49
2023-06-07T10:36:45.902Z,32.97
2023-06-07T10:39:13.912Z,34.19
2023-06-07T10:41:41.866Z,34.18
2023-06-07T10:44:09.955Z,33.73
2023-06-07T10:46:39.415Z,33.39
2023-06-07T10:49:07.488Z,33.07
2023-06-07T10:52:04.085Z,33.61
2023-06-07T10:54:32.586Z,34.21
2023-06-07T10:57:00.983Z,34.86
2023-06-07T10:59:28.991Z,35.40
2023-06-07T11:02:19.773Z,35.57
2023-06-07T11:05:01.277Z,36.56
2023-06-07T11:07:31.681Z,37.21
2023-06-07T11:10:34.674Z,35.48
2023-06-07T11:13:03.132Z,34.60
2023-06-07T11:15:37.084Z,34.14
2023-06-07T11:18:15.398Z,33.98
2023-06-07T11:20:53.628Z,33.73
2023-06-07T11:23:28.867Z,33.20
2023-06-07T11:26:00.751Z,33.25
2023-06-07T11:28:29.378Z,33.47
2023-06-07T11:30:57.916Z,33.55
2023-06-07T11:33:27.671Z,34.90
2023-06-07T11:35:56.012Z,35.28
2023-06-07T11:38:24.153Z,35.99
2023-06-07T11:40:52.103Z,36.06
2023-06-07T11:43:22.301Z,36.76
2023-06-07T11:45:50.318Z,36.34
2023-06-07T11:48:18.808Z,36.89
2023-06-07T11:50:49.036Z,36.25
2023-06-07T11:53:17.228Z,36.09
2023-06-07T11:55:45.179Z,36.17
2023-06-07T11:58:13.164Z,35.49
2023-06-07T12:00:43.749Z,34.73
2023-06-07T12:03:13.931Z,34.66
2023-06-07T12:05:42.297Z,34.74
2023-06-07T12:08:15.151Z,34.57
2023-06-07T12:10:43.133Z,34.69
2023-06-07T12:13:12.274Z,34.25
2023-06-07T12:15:44.260Z,33.88
2023-06-07T12:18:13.748Z,33.36
2023-06-07T12:20:42.724Z,33.06
2023-06-07T12:23:11.679Z,32.93
2023-06-07T12:25:41.388Z,33.09
2023-06-07T12:28:10.704Z,33.17
2023-06-07T12:30:39.444Z,33.35
2023-06-07T12:33:07.572Z,33.51
2023-06-07T12:35:39.928Z,34.01
2023-06-07T12:38:07.973Z,34.08
2023-06-07T12:40:36.323Z,34.08
2023-06-07T12:43:05.667Z,34.14
2023-06-07T12:45:33.656Z,34.08
2023-06-07T12:48:01.724Z,34.08
2023-06-07T12:50:29.761Z,34.10
2023-06-07T12:52:57.963Z,34.02
2023-06-07T12:55:26.109Z,33.96
2023-06-07T12:57:54.103Z,34.02
2023-06-07T13:00:24.599Z,33.43
2023-06-07T13:02:52.606Z,33.25
2023-06-07T13:05:21.591Z,33.29
2023-06-07T13:07:49.592Z,33.45
2023-06-07T13:10:17.589Z,33.90
2023-06-07T13:12:46.551Z,34.26
2023-06-07T13:15:14.548Z,34.04
2023-06-07T13:17:44.293Z,33.63
2023-06-07T13:20:13.032Z,33.79
2023-06-07T13:22:41.007Z,33.83
2023-06-07T13:25:10.496Z,34.04
2023-06-07T13:27:39.065Z,34.16
2023-06-07T13:30:09.361Z,34.99
2023-06-07T13:32:37.409Z,35.92
2023-06-07T13:35:07.377Z,36.09
2023-06-07T13:37:35.388Z,36.75
2023-06-07T13:40:04.255Z,36.81
2023-06-07T13:42:32.435Z,36.13
2023-06-07T13:45:00.459Z,35.56
2023-06-07T13:47:31.893Z,34.92
2023-06-07T13:50:00.272Z,34.93
2023-06-07T13:52:29.600Z,34.22
2023-06-07T13:54:58.323Z,33.13
2023-06-07T13:57:26.644Z,32.24
2023-06-07T13:59:54.953Z,31.77
2023-06-07T14:02:23.185Z,31.19
2023-06-07T14:04:51.361Z,30.68
2023-06-07T14:07:19.445Z,30.55
2023-06-07T14:09:49.127Z,30.09
2023-06-07T14:12:17.273Z,29.84
2023-06-07T14:14:45.240Z,29.62
2023-06-07T14:17:13.248Z,29.41
2023-06-07T14:19:43.133Z,29.11
2023-06-07T14:22:11.185Z,29.24
2023-06-07T14:24:39.125Z,29.15
2023-06-07T14:27:09.269Z,28.95
2023-06-07T14:29:37.271Z,28.95
2023-06-07T14:32:05.879Z,28.83
2023-06-07T14:34:34.043Z,28.75
2023-06-07T14:37:02.566Z,28.90
2023-06-07T14:39:30.588Z,28.80
2023-06-07T14:41:58.571Z,28.62
2023-06-07T14:44:27.865Z,28.48
2023-06-07T14:46:55.839Z,28.45
2023-06-07T14:49:23.809Z,28.55
2023-06-07T14:51:51.765Z,28.62
2023-06-07T14:54:19.762Z,28.59
2023-06-07T14:56:47.755Z,28.67
2023-06-07T14:59:15.799Z,28.61
2023-06-07T15:01:45.246Z,28.57
2023-06-07T15:04:13.384Z,28.39
2023-06-07T15:06:42.015Z,28.26
2023-06-07T15:09:09.963Z,28.18
2023-06-07T15:11:37.938Z,28.17
2023-06-07T15:14:05.932Z,28.14
2023-06-07T15:16:33.978Z,28.25
2023-06-07T15:19:03.452Z,28.42
2023-06-07T15:21:31.480Z,28.46
2023-06-07T15:23:59.498Z,28.45
2023-06-07T15:26:27.656Z,28.46
2023-06-07T15:28:58.069Z,28.47
2023-06-07T15:31:27.152Z,28.32
2023-06-07T15:33:56.479Z,28.43
2023-06-07T15:36:25.899Z,28.45
2023-06-07T15:38:53.878Z,28.36
2023-06-07T15:41:23.265Z,28.03
2023-06-07T15:43:51.263Z,28.04
2023-06-07T15:46:19.475Z,27.81
2023-06-07T15:48:51.497Z,27.82
2023-06-07T15:51:20.035Z,27.58
2023-06-07T15:53:51.074Z,27.42
2023-06-07T15:56:19.051Z,27.31
2023-06-07T15:58:47.075Z,27.15
2023-06-07T16:01:15.123Z,27.14
2023-06-07T16:03:55.958Z,27.11
2023-06-07T16:06:24.687Z,26.99
2023-06-07T16:08:54.042Z,26.83
2023-06-07T16:11:23.863Z,26.78
2023-06-07T16:13:51.971Z,26.59
2023-06-07T16:16:20.040Z,26.45
2023-06-07T16:18:49.906Z,26.38
2023-06-07T16:21:19.989Z,26.30
2023-06-07T16:23:48.029Z,26.13
2023-06-07T16:26:17.527Z,26.07
2023-06-07T16:28:46.275Z,25.97
2023-06-07T16:31:14.338Z,25.88
2023-06-07T16:33:42.871Z,25.74
2023-06-07T16:36:12.277Z,25.57
2023-06-07T16:38:40.348Z,25.55
2023-06-07T16:41:08.336Z,25.43
2023-06-07T16:43:37.679Z,25.31
2023-06-07T16:46:05.688Z,25.13
2023-06-07T16:48:33.668Z,25.06
2023-06-07T16:51:01.643Z,24.91
2023-06-07T16:53:29.844Z,24.76
2023-06-07T16:55:57.832Z,24.73
2023-06-07T16:58:25.811Z,24.64
2023-06-07T17:00:57.157Z,24.50
2023-06-07T17:03:25.263Z,24.43
2023-06-07T17:05:53.890Z,24.35
2023-06-07T17:08:21.879Z,24.32
2023-06-07T17:10:49.875Z,24.26
2023-06-07T17:13:18.071Z,24.08
2023-06-07T17:15:46.132Z,24.10
2023-06-07T17:18:15.526Z,23.96
2023-06-07T17:20:44.485Z,23.82
2023-06-07T17:23:15.686Z,23.66
2023-06-07T17:25:43.672Z,23.74
2023-06-07T17:28:11.701Z,23.54
2023-06-07T17:30:40.020Z,23.40
2023-06-07T17:33:08.229Z,23.36
2023-06-07T17:35:37.611Z,23.14
2023-06-07T17:38:05.555Z,23.08
2023-06-07T17:40:33.526Z,22.95
2023-06-07T17:43:01.549Z,22.88
2023-06-07T17:45:29.536Z,22.81
2023-06-07T17:47:58.083Z,22.66
2023-06-07T17:50:41.469Z,22.61
2023-06-07T17:53:15.291Z,22.52
2023-06-07T17:55:44.859Z,22.48
2023-06-07T17:58:12.926Z,22.28
2023-06-07T18:00:40.904Z,22.20
2023-06-07T18:03:09.210Z,22.09
2023-06-07T18:05:37.356Z,22.02
2023-06-07T18:08:05.763Z,21.95
2023-06-07T18:10:35.120Z,21.82
2023-06-07T18:13:04.614Z,21.73
2023-06-07T18:15:34.257Z,21.64
2023-06-07T18:18:02.318Z,21.58
2023-06-07T18:20:30.329Z,21.49
2023-06-07T18:22:58.384Z,21.40
2023-06-07T18:25:26.467Z,21.25
2023-06-07T18:27:55.777Z,21.24
2023-06-07T18:30:23.747Z,21.14
2023-06-07T18:32:52.220Z,21.13
2023-06-07T18:35:20.415Z,21.03
2023-06-07T18:37:48.510Z,20.98
2023-06-07T18:40:16.540Z,20.89
2023-06-07T18:42:44.572Z,20.81
2023-06-07T18:45:13.989Z,20.76
2023-06-07T18:47:42.528Z,20.69
2023-06-07T18:50:10.755Z,20.67
2023-06-07T18:52:38.739Z,20.64
2023-06-07T18:55:08.205Z,20.64
2023-06-07T18:57:36.485Z,20.53
2023-06-07T19:00:04.839Z,20.59
2023-06-07T19:02:34.333Z,20.52
2023-06-07T19:05:02.419Z,20.49
2023-06-07T19:07:30.437Z,20.40
2023-06-07T19:09:58.444Z,20.36
2023-06-07T19:12:28.933Z,20.33
2023-06-07T19:14:57.327Z,20.29
2023-06-07T19:17:25.475Z,20.22
2023-06-07T19:19:54.867Z,20.22
2023-06-07T19:22:22.846Z,20.12
2023-06-07T19:24:50.808Z,20.19
2023-06-07T19:27:19.707Z,20.14
2023-06-07T19:29:47.840Z,20.11
2023-06-07T19:32:15.956Z,20.09
2023-06-07T19:34:44.382Z,19.98
2023-06-07T19:37:14.113Z,19.94
2023-06-07T19:39:42.110Z,19.87
2023-06-07T19:42:12.407Z,19.86
2023-06-07T19:44:41.231Z,19.81
2023-06-07T19:47:09.959Z,19.77
2023-06-07T19:49:39.040Z,19.69
2023-06-07T19:52:07.673Z,19.60
2023-06-07T19:54:37.137Z,19.52
2023-06-07T19:57:06.743Z,19.44
2023-06-07T19:59:34.878Z,19.34
2023-06-07T20:02:05.286Z,19.28
2023-06-07T20:04:34.189Z,19.16
2023-06-07T20:07:02.962Z,19.15
2023-06-07T20:09:31.899Z,19.05
2023-06-07T20:12:01.227Z,18.99
2023-06-07T20:14:29.235Z,18.88
2023-06-07T20:16:57.344Z,18.84
2023-06-07T20:19:25.440Z,18.81
2023-06-07T20:21:55.274Z,18.75
2023-06-07T20:24:23.298Z,18.75
2023-06-07T20:26:51.359Z,18.73
2023-06-07T20:29:20.718Z,18.68
2023-06-07T20:31:51.107Z,18.69
2023-06-07T20:34:19.167Z,18.65
2023-06-07T20:36:47.241Z,18.62
2023-06-07T20:39:15.229Z,18.54
2023-06-07T20:41:43.273Z,18.48
2023-06-07T20:44:11.220Z,18.45
2023-06-07T20:46:40.567Z,18.40
2023-06-07T20:49:09.086Z,18.33
2023-06-07T20:51:37.602Z,18.25
2023-06-07T20:54:05.760Z,18.21
2023-06-07T20:56:33.685Z,18.13
2023-06-07T20:59:01.794Z,18.02
2023-06-07T21:01:29.858Z,18.00
2023-06-07T21:03:59.356Z,17.97
2023-06-07T21:06:27.473Z,17.88
2023-06-07T21:08:55.566Z,17.78
2023-06-07T21:11:23.627Z,17.67
2023-06-07T21:13:51.633Z,17.64
2023-06-07T21:16:19.656Z,17.51
2023-06-07T21:18:47.701Z,17.50
2023-06-07T21:21:17.122Z,17.45
2023-06-07T21:23:45.200Z,17.40
2023-06-07T21:26:13.164Z,17.31
2023-06-07T21:28:41.145Z,17.25
2023-06-07T21:31:09.144Z,17.19
2023-06-07T21:33:37.236Z,17.16
2023-06-07T21:36:05.528Z,17.13
2023-06-07T21:38:34.874Z,17.14
2023-06-07T21:41:02.816Z,17.11
2023-06-07T21:43:30.791Z,17.11
2023-06-07T21:45:58.833Z,17.09
2023-06-07T21:48:26.862Z,17.08
2023-06-07T21:50:55.581Z,17.06
2023-06-07T21:53:23.619Z,17.02
2023-06-07T21:55:52.973Z,16.97
2023-06-07T21:58:21.081Z,16.94
2023-06-07T22:00:50.217Z,16.91
2023-06-07T22:03:18.316Z,16.85
2023-06-07T22:05:46.348Z,16.82
2023-06-07T22:08:14.285Z,16.80
2023-06-07T22:10:42.627Z,16.79
2023-06-07T22:13:13.603Z,16.75
2023-06-07T22:15:42.100Z,16.67
2023-06-07T22:18:12.597Z,16.63
2023-06-07T22:20:41.415Z,16.47
2023-06-07T22:23:09.577Z,16.44
2023-06-07T22:25:41.441Z,16.38
2023-06-07T22:28:13.672Z,16.29
2023-06-07T22:30:42.431Z,16.23
2023-06-07T22:33:10.689Z,16.21
2023-06-07T22:35:40.818Z,16.17
2023-06-07T22:38:13.512Z,16.17
2023-06-07T22:40:42.134Z,16.10
2023-06-07T22:43:11.471Z,16.05
2023-06-07T22:45:39.739Z,16.04
2023-06-07T22:48:10.701Z,16.02
2023-06-07T22:50:39.383Z,16.00
2023-06-07T22:53:07.993Z,15.99
2023-06-07T22:55:36.046Z,15.99
2023-06-07T22:58:05.112Z,15.95
2023-06-07T23:00:36.138Z,15.91
2023-06-07T23:03:04.961Z,15.87
2023-06-07T23:05:33.705Z,15.88
2023-06-07T23:08:01.770Z,15.83
2023-06-07T23:10:37.131Z,15.78
2023-06-07T23:13:10.235Z,15.76
2023-06-07T23:15:42.857Z,15.72
2023-06-07T23:18:12.576Z,15.60
2023-06-07T23:20:42.478Z,15.53
2023-06-07T23:23:11.383Z,15.53
2023-06-07T23:25:39.538Z,15.50
2023-06-07T23:28:07.682Z,15.46
2023-06-07T23:30:35.681Z,15.42
2023-06-07T23:33:05.205Z,15.33
2023-06-07T23:35:33.153Z,15.36
2023-06-07T23:38:01.238Z,15.27
2023-06-07T23:40:29.241Z,15.11
2023-06-07T23:42:57.874Z,15.08
2023-06-07T23:45:27.459Z,15.06
2023-06-07T23:47:55.524Z,15.02
2023-06-07T23:50:25.215Z,15.00
2023-06-07T23:52:53.260Z,14.98
2023-06-07T23:55:21.216Z,14.92
2023-06-07T23:57:49.184Z,14.89
